sensor_id;sensor_type;location;lat;lon;timestamp;temperature;humidity
30300;DHT22;17110;52.602;12.998;2024-02-23T00:02:41;10.90;99.90
30300;DHT22;17110;52.602;12.998;2024-02-23T00:07:42;10.90;99.90
30300;DHT22;17110;52.602;12.998;2024-02-23T00:12:42;10.90;99.90
30300;DHT22;17110;52.602;12.998;2024-02-23T00:17:45;11.00;99.90
30300;DHT22;17110;52.602;12.998;2024-02-23T00:22:46;11.00;99.90
30300;DHT22;17110;52.602;12.998;2024-02-23T00:27:46;10.90;99.90
30300;DHT22;17110;52.602;12.998;2024-02-23T00:32:49;10.90;99.90
30300;DHT22;17110;52.602;12.998;2024-02-23T00:37:49;10.90;99.90
30300;DHT22;17110;52.602;12.998;2024-02-23T00:42:50;10.70;99.90
30300;DHT22;17110;52.602;12.998;2024-02-23T00:47:52;10.60;99.90
30300;DHT22;17110;52.602;12.998;2024-02-23T00:52:53;10.70;99.90
30300;DHT22;17110;52.602;12.998;2024-02-23T00:57:54;10.70;99.90
30300;DHT22;17110;52.602;12.998;2024-02-23T01:02:56;10.70;99.90
30300;DHT22;17110;52.602;12.998;2024-02-23T01:07:56;10.80;99.90
30300;DHT22;17110;52.602;12.998;2024-02-23T01:12:57;11.00;99.90
30300;DHT22;17110;52.602;12.998;2024-02-23T01:17:59;11.10;99.90
30300;DHT22;17110;52.602;12.998;2024-02-23T01:23:00;11.20;99.90
30300;DHT22;17110;52.602;12.998;2024-02-23T01:28:01;11.20;99.90
30300;DHT22;17110;52.602;12.998;2024-02-23T01:33:03;11.40;99.90
30300;DHT22;17110;52.602;12.998;2024-02-23T01:38:04;11.40;99.90
30300;DHT22;17110;52.602;12.998;2024-02-23T01:43:05;11.40;99.90
30300;DHT22;17110;52.602;12.998;2024-02-23T01:48:07;11.30;99.90
30300;DHT22;17110;52.602;12.998;2024-02-23T01:53:10;11.20;99.90
30300;DHT22;17110;52.602;12.998;2024-02-23T01:58:11;10.80;99.90
30300;DHT22;17110;52.602;12.998;2024-02-23T02:03:13;10.70;99.90
30300;DHT22;17110;52.602;12.998;2024-02-23T02:08:14;10.50;99.90
30300;DHT22;17110;52.602;12.998;2024-02-23T02:13:15;10.40;99.90
30300;DHT22;17110;52.602;12.998;2024-02-23T02:18:17;10.20;99.90
30300;DHT22;17110;52.602;12.998;2024-02-23T02:23:18;10.00;99.90
30300;DHT22;17110;52.602;12.998;2024-02-23T02:28:19;10.00;99.90
30300;DHT22;17110;52.602;12.998;2024-02-23T02:33:21;10.20;99.90
30300;DHT22;17110;52.602;12.998;2024-02-23T02:38:22;10.10;99.90
30300;DHT22;17110;52.602;12.998;2024-02-23T02:43:23;9.90;99.90
30300;DHT22;17110;52.602;12.998;2024-02-23T02:48:25;9.80;99.90
30300;DHT22;17110;52.602;12.998;2024-02-23T02:53:26;9.60;99.90
30300;DHT22;17110;52.602;12.998;2024-02-23T02:58:26;9.40;99.90
30300;DHT22;17110;52.602;12.998;2024-02-23T03:03:28;9.30;99.90
30300;DHT22;17110;52.602;12.998;2024-02-23T03:08:29;9.20;99.90
30300;DHT22;17110;52.602;12.998;2024-02-23T03:13:30;9.30;99.90
30300;DHT22;17110;52.602;12.998;2024-02-23T03:18:32;9.30;99.90
30300;DHT22;17110;52.602;12.998;2024-02-23T03:23:33;9.20;99.90
30300;DHT22;17110;52.602;12.998;2024-02-23T03:28:33;9.20;99.90
30300;DHT22;17110;52.602;12.998;2024-02-23T03:33:36;9.10;99.90
30300;DHT22;17110;52.602;12.998;2024-02-23T03:38:36;9.10;99.90
30300;DHT22;17110;52.602;12.998;2024-02-23T03:43:37;9.10;99.90
30300;DHT22;17110;52.602;12.998;2024-02-23T03:48:40;9.10;99.90
30300;DHT22;17110;52.602;12.998;2024-02-23T03:53:41;9.10;99.90
30300;DHT22;17110;52.602;12.998;2024-02-23T03:58:41;9.10;99.90
30300;DHT22;17110;52.602;12.998;2024-02-23T04:03:43;9.10;99.90
30300;DHT22;17110;52.602;12.998;2024-02-23T04:08:44;9.10;99.90
30300;DHT22;17110;52.602;12.998;2024-02-23T04:13:45;9.10;99.90
30300;DHT22;17110;52.602;12.998;2024-02-23T04:18:47;9.10;99.90
30300;DHT22;17110;52.602;12.998;2024-02-23T04:23:48;9.10;99.90
30300;DHT22;17110;52.602;12.998;2024-02-23T04:28:48;9.10;99.90
30300;DHT22;17110;52.602;12.998;2024-02-23T04:33:50;9.00;99.90
30300;DHT22;17110;52.602;12.998;2024-02-23T04:38:51;8.90;99.90
30300;DHT22;17110;52.602;12.998;2024-02-23T04:43:52;8.90;99.90
30300;DHT22;17110;52.602;12.998;2024-02-23T04:48:54;8.80;99.90
30300;DHT22;17110;52.602;12.998;2024-02-23T04:53:55;8.60;99.90
30300;DHT22;17110;52.602;12.998;2024-02-23T04:58:55;8.50;99.90
30300;DHT22;17110;52.602;12.998;2024-02-23T05:03:57;8.30;99.90
30300;DHT22;17110;52.602;12.998;2024-02-23T05:08:58;8.10;99.90
30300;DHT22;17110;52.602;12.998;2024-02-23T05:13:59;7.90;99.90
30300;DHT22;17110;52.602;12.998;2024-02-23T05:19:01;7.60;99.90
30300;DHT22;17110;52.602;12.998;2024-02-23T05:24:02;7.50;99.90
30300;DHT22;17110;52.602;12.998;2024-02-23T05:29:03;7.40;99.90
30300;DHT22;17110;52.602;12.998;2024-02-23T05:34:05;7.20;99.90
30300;DHT22;17110;52.602;12.998;2024-02-23T05:39:05;7.20;99.90
30300;DHT22;17110;52.602;12.998;2024-02-23T05:44:06;7.10;99.90
30300;DHT22;17110;52.602;12.998;2024-02-23T05:49:08;7.00;99.90
30300;DHT22;17110;52.602;12.998;2024-02-23T05:54:10;7.00;99.90
30300;DHT22;17110;52.602;12.998;2024-02-23T05:59:11;7.00;99.90
30300;DHT22;17110;52.602;12.998;2024-02-23T06:04:13;7.10;99.90
30300;DHT22;17110;52.602;12.998;2024-02-23T06:09:14;7.00;99.90
30300;DHT22;17110;52.602;12.998;2024-02-23T06:14:14;6.90;99.90
30300;DHT22;17110;52.602;12.998;2024-02-23T06:19:16;7.00;99.90
30300;DHT22;17110;52.602;12.998;2024-02-23T06:24:17;6.90;99.90
30300;DHT22;17110;52.602;12.998;2024-02-23T06:29:18;6.90;99.90
30300;DHT22;17110;52.602;12.998;2024-02-23T06:34:20;6.80;99.90
30300;DHT22;17110;52.602;12.998;2024-02-23T06:39:21;6.60;99.90
30300;DHT22;17110;52.602;12.998;2024-02-23T06:44:21;6.60;99.90
30300;DHT22;17110;52.602;12.998;2024-02-23T06:49:23;6.70;99.90
30300;DHT22;17110;52.602;12.998;2024-02-23T06:54:24;6.80;99.90
30300;DHT22;17110;52.602;12.998;2024-02-23T06:59:25;7.00;99.90
30300;DHT22;17110;52.602;12.998;2024-02-23T07:04:27;7.20;99.90
30300;DHT22;17110;52.602;12.998;2024-02-23T07:09:28;7.30;99.90
30300;DHT22;17110;52.602;12.998;2024-02-23T07:14:28;7.40;99.90
30300;DHT22;17110;52.602;12.998;2024-02-23T07:19:30;7.40;99.90
30300;DHT22;17110;52.602;12.998;2024-02-23T07:24:31;7.40;99.90
30300;DHT22;17110;52.602;12.998;2024-02-23T07:29:32;7.40;99.90
30300;DHT22;17110;52.602;12.998;2024-02-23T07:34:34;7.40;99.90
30300;DHT22;17110;52.602;12.998;2024-02-23T07:39:35;7.40;99.90
30300;DHT22;17110;52.602;12.998;2024-02-23T07:44:35;7.50;99.90
30300;DHT22;17110;52.602;12.998;2024-02-23T07:49:38;7.70;99.90
30300;DHT22;17110;52.602;12.998;2024-02-23T07:54:39;7.80;99.90
30300;DHT22;17110;52.602;12.998;2024-02-23T07:59:39;7.80;99.90
30300;DHT22;17110;52.602;12.998;2024-02-23T08:04:41;7.90;99.90
30300;DHT22;17110;52.602;12.998;2024-02-23T08:09:42;8.00;99.90
30300;DHT22;17110;52.602;12.998;2024-02-23T08:14:43;8.10;99.90
30300;DHT22;17110;52.602;12.998;2024-02-23T08:19:46;8.20;99.90
30300;DHT22;17110;52.602;12.998;2024-02-23T08:24:47;8.30;99.90
30300;DHT22;17110;52.602;12.998;2024-02-23T08:29:48;8.20;99.90
30300;DHT22;17110;52.602;12.998;2024-02-23T08:34:50;8.20;99.90
30300;DHT22;17110;52.602;12.998;2024-02-23T08:39:50;8.10;99.90
30300;DHT22;17110;52.602;12.998;2024-02-23T08:44:51;8.20;99.90
30300;DHT22;17110;52.602;12.998;2024-02-23T08:49:53;8.20;99.90
30300;DHT22;17110;52.602;12.998;2024-02-23T08:54:54;8.30;99.90
30300;DHT22;17110;52.602;12.998;2024-02-23T08:59:55;8.50;99.90
30300;DHT22;17110;52.602;12.998;2024-02-23T09:04:57;8.60;99.90
30300;DHT22;17110;52.602;12.998;2024-02-23T09:09:57;8.70;99.90
30300;DHT22;17110;52.602;12.998;2024-02-23T09:14:58;8.80;99.90
30300;DHT22;17110;52.602;12.998;2024-02-23T09:20:00;8.90;99.90
30300;DHT22;17110;52.602;12.998;2024-02-23T09:25:01;8.90;99.90
30300;DHT22;17110;52.602;12.998;2024-02-23T09:30:02;9.10;99.90
30300;DHT22;17110;52.602;12.998;2024-02-23T09:35:05;9.30;99.90
30300;DHT22;17110;52.602;12.998;2024-02-23T09:40:07;9.50;99.90
30300;DHT22;17110;52.602;12.998;2024-02-23T09:45:11;9.60;99.90
30300;DHT22;17110;52.602;12.998;2024-02-23T09:50:20;9.80;99.90
30300;DHT22;17110;52.602;12.998;2024-02-23T09:55:22;9.70;99.90
30300;DHT22;17110;52.602;12.998;2024-02-23T10:00:23;9.70;99.90
30300;DHT22;17110;52.602;12.998;2024-02-23T10:05:30;9.90;99.90
30300;DHT22;17110;52.602;12.998;2024-02-23T10:10:33;10.10;99.90
30300;DHT22;17110;52.602;12.998;2024-02-23T10:15:34;10.00;99.90
30300;DHT22;17110;52.602;12.998;2024-02-23T10:20:36;10.20;99.90
30300;DHT22;17110;52.602;12.998;2024-02-23T10:25:37;10.00;99.90
30300;DHT22;17110;52.602;12.998;2024-02-23T10:30:38;10.00;99.90
30300;DHT22;17110;52.602;12.998;2024-02-23T10:35:42;9.90;99.90
30300;DHT22;17110;52.602;12.998;2024-02-23T10:40:43;9.90;99.90
30300;DHT22;17110;52.602;12.998;2024-02-23T10:45:45;10.00;99.90
30300;DHT22;17110;52.602;12.998;2024-02-23T10:50:49;10.10;99.90
30300;DHT22;17110;52.602;12.998;2024-02-23T10:55:52;10.00;99.90
30300;DHT22;17110;52.602;12.998;2024-02-23T11:00:59;10.10;99.90
30300;DHT22;17110;52.602;12.998;2024-02-23T11:06:05;10.10;99.90
30300;DHT22;17110;52.602;12.998;2024-02-23T11:11:09;10.20;99.90
30300;DHT22;17110;52.602;12.998;2024-02-23T11:16:10;10.20;99.90
30300;DHT22;17110;52.602;12.998;2024-02-23T11:21:12;10.10;99.90
30300;DHT22;17110;52.602;12.998;2024-02-23T11:26:13;10.20;99.90
30300;DHT22;17110;52.602;12.998;2024-02-23T11:31:16;10.20;99.90
30300;DHT22;17110;52.602;12.998;2024-02-23T11:36:24;10.20;99.90
30300;DHT22;17110;52.602;12.998;2024-02-23T11:41:28;10.20;99.90
30300;DHT22;17110;52.602;12.998;2024-02-23T11:46:29;10.20;99.90
30300;DHT22;17110;52.602;12.998;2024-02-23T11:51:31;10.30;99.90
30300;DHT22;17110;52.602;12.998;2024-02-23T11:56:32;10.30;99.90
30300;DHT22;17110;52.602;12.998;2024-02-23T12:01:33;10.30;99.90
30300;DHT22;17110;52.602;12.998;2024-02-23T12:06:35;10.20;99.90
30300;DHT22;17110;52.602;12.998;2024-02-23T12:11:36;10.30;99.90
30300;DHT22;17110;52.602;12.998;2024-02-23T12:16:37;10.40;99.90
30300;DHT22;17110;52.602;12.998;2024-02-23T12:21:39;10.40;99.90
30300;DHT22;17110;52.602;12.998;2024-02-23T12:26:39;10.40;99.90
30300;DHT22;17110;52.602;12.998;2024-02-23T12:31:40;10.50;99.90
30300;DHT22;17110;52.602;12.998;2024-02-23T12:36:43;10.20;99.90
30300;DHT22;17110;52.602;12.998;2024-02-23T12:41:43;10.00;99.90
30300;DHT22;17110;52.602;12.998;2024-02-23T12:46:44;10.10;99.90
30300;DHT22;17110;52.602;12.998;2024-02-23T12:51:46;10.10;99.90
30300;DHT22;17110;52.602;12.998;2024-02-23T12:56:47;10.20;99.90
30300;DHT22;17110;52.602;12.998;2024-02-23T13:01:48;10.30;99.90
30300;DHT22;17110;52.602;12.998;2024-02-23T13:06:50;10.20;99.90
30300;DHT22;17110;52.602;12.998;2024-02-23T13:11:51;10.00;99.90
30300;DHT22;17110;52.602;12.998;2024-02-23T13:16:51;9.90;99.90
30300;DHT22;17110;52.602;12.998;2024-02-23T13:21:53;10.00;99.90
30300;DHT22;17110;52.602;12.998;2024-02-23T13:26:54;10.10;99.90
30300;DHT22;17110;52.602;12.998;2024-02-23T13:31:55;10.10;99.90
30300;DHT22;17110;52.602;12.998;2024-02-23T13:36:57;9.90;99.90
30300;DHT22;17110;52.602;12.998;2024-02-23T13:41:58;10.00;99.90
30300;DHT22;17110;52.602;12.998;2024-02-23T13:46:58;9.90;99.90
30300;DHT22;17110;52.602;12.998;2024-02-23T13:52:00;9.80;99.90
30300;DHT22;17110;52.602;12.998;2024-02-23T13:57:01;9.80;99.90
30300;DHT22;17110;52.602;12.998;2024-02-23T14:02:02;9.90;99.90
30300;DHT22;17110;52.602;12.998;2024-02-23T14:07:04;9.80;99.90
30300;DHT22;17110;52.602;12.998;2024-02-23T14:12:05;9.70;99.90
30300;DHT22;17110;52.602;12.998;2024-02-23T14:17:06;9.60;99.90
30300;DHT22;17110;52.602;12.998;2024-02-23T14:22:08;9.50;99.90
30300;DHT22;17110;52.602;12.998;2024-02-23T14:27:09;9.40;99.90
30300;DHT22;17110;52.602;12.998;2024-02-23T14:32:15;9.30;99.90
30300;DHT22;17110;52.602;12.998;2024-02-23T14:37:18;9.20;99.90
30300;DHT22;17110;52.602;12.998;2024-02-23T14:42:18;9.30;99.90
30300;DHT22;17110;52.602;12.998;2024-02-23T14:47:19;9.20;99.90
30300;DHT22;17110;52.602;12.998;2024-02-23T14:52:21;9.20;99.90
30300;DHT22;17110;52.602;12.998;2024-02-23T14:57:22;9.10;99.90
30300;DHT22;17110;52.602;12.998;2024-02-23T15:02:23;9.00;99.90
30300;DHT22;17110;52.602;12.998;2024-02-23T15:07:25;9.00;99.90
30300;DHT22;17110;52.602;12.998;2024-02-23T15:12:26;9.00;99.90
30300;DHT22;17110;52.602;12.998;2024-02-23T15:17:26;8.80;99.90
30300;DHT22;17110;52.602;12.998;2024-02-23T15:22:29;8.80;99.90
30300;DHT22;17110;52.602;12.998;2024-02-23T15:27:30;8.80;99.90
30300;DHT22;17110;52.602;12.998;2024-02-23T15:32:30;8.80;99.90
30300;DHT22;17110;52.602;12.998;2024-02-23T15:37:32;8.70;99.90
30300;DHT22;17110;52.602;12.998;2024-02-23T15:42:33;8.60;99.90
30300;DHT22;17110;52.602;12.998;2024-02-23T15:47:34;8.60;99.90
30300;DHT22;17110;52.602;12.998;2024-02-23T15:52:36;8.60;99.90
30300;DHT22;17110;52.602;12.998;2024-02-23T15:57:37;8.50;99.90
30300;DHT22;17110;52.602;12.998;2024-02-23T16:02:38;8.30;99.90
30300;DHT22;17110;52.602;12.998;2024-02-23T16:07:40;8.30;99.90
30300;DHT22;17110;52.602;12.998;2024-02-23T16:12:41;8.20;99.90
30300;DHT22;17110;52.602;12.998;2024-02-23T16:17:42;8.10;99.90
30300;DHT22;17110;52.602;12.998;2024-02-23T16:22:44;8.20;99.90
30300;DHT22;17110;52.602;12.998;2024-02-23T16:27:45;8.10;99.90
30300;DHT22;17110;52.602;12.998;2024-02-23T16:32:46;8.00;99.90
30300;DHT22;17110;52.602;12.998;2024-02-23T16:37:48;7.80;99.90
30300;DHT22;17110;52.602;12.998;2024-02-23T16:42:48;7.70;99.90
30300;DHT22;17110;52.602;12.998;2024-02-23T16:47:49;7.70;99.90
30300;DHT22;17110;52.602;12.998;2024-02-23T16:52:52;7.70;99.90
30300;DHT22;17110;52.602;12.998;2024-02-23T16:57:53;7.60;99.90
30300;DHT22;17110;52.602;12.998;2024-02-23T17:02:53;7.50;99.90
30300;DHT22;17110;52.602;12.998;2024-02-23T17:07:56;7.60;99.90
30300;DHT22;17110;52.602;12.998;2024-02-23T17:12:56;7.50;99.90
30300;DHT22;17110;52.602;12.998;2024-02-23T17:17:57;7.50;99.90
30300;DHT22;17110;52.602;12.998;2024-02-23T17:22:59;7.50;99.90
30300;DHT22;17110;52.602;12.998;2024-02-23T17:28:00;7.40;99.90
30300;DHT22;17110;52.602;12.998;2024-02-23T17:33:01;7.30;99.90
30300;DHT22;17110;52.602;12.998;2024-02-23T17:38:03;7.20;99.90
30300;DHT22;17110;52.602;12.998;2024-02-23T17:43:04;7.10;99.90
30300;DHT22;17110;52.602;12.998;2024-02-23T17:48:05;7.20;99.90
30300;DHT22;17110;52.602;12.998;2024-02-23T17:53:07;7.10;99.90
30300;DHT22;17110;52.602;12.998;2024-02-23T17:58:08;7.00;99.90
30300;DHT22;17110;52.602;12.998;2024-02-23T18:03:09;6.90;99.90
30300;DHT22;17110;52.602;12.998;2024-02-23T18:08:11;6.80;99.90
30300;DHT22;17110;52.602;12.998;2024-02-23T18:13:11;6.70;99.90
30300;DHT22;17110;52.602;12.998;2024-02-23T18:18:12;6.60;99.90
30300;DHT22;17110;52.602;12.998;2024-02-23T18:23:14;6.50;99.90
30300;DHT22;17110;52.602;12.998;2024-02-23T18:28:15;6.40;99.90
30300;DHT22;17110;52.602;12.998;2024-02-23T18:33:16;6.30;99.90
30300;DHT22;17110;52.602;12.998;2024-02-23T18:38:18;6.20;99.90
30300;DHT22;17110;52.602;12.998;2024-02-23T18:43:18;6.20;99.90
30300;DHT22;17110;52.602;12.998;2024-02-23T18:48:19;6.10;99.90
30300;DHT22;17110;52.602;12.998;2024-02-23T18:53:21;6.00;99.90
30300;DHT22;17110;52.602;12.998;2024-02-23T18:58:22;6.00;99.90
30300;DHT22;17110;52.602;12.998;2024-02-23T19:03:23;6.00;99.90
30300;DHT22;17110;52.602;12.998;2024-02-23T19:08:25;5.90;99.90
30300;DHT22;17110;52.602;12.998;2024-02-23T19:13:26;5.90;99.90
30300;DHT22;17110;52.602;12.998;2024-02-23T19:18:26;5.80;99.90
30300;DHT22;17110;52.602;12.998;2024-02-23T19:23:28;5.70;99.90
30300;DHT22;17110;52.602;12.998;2024-02-23T19:28:29;5.70;99.90
30300;DHT22;17110;52.602;12.998;2024-02-23T19:33:30;5.70;99.90
30300;DHT22;17110;52.602;12.998;2024-02-23T19:38:32;5.60;99.90
30300;DHT22;17110;52.602;12.998;2024-02-23T19:43:33;5.60;99.90
30300;DHT22;17110;52.602;12.998;2024-02-23T19:48:33;5.50;99.90
30300;DHT22;17110;52.602;12.998;2024-02-23T19:53:36;5.50;99.90
30300;DHT22;17110;52.602;12.998;2024-02-23T19:58:36;5.50;99.90
30300;DHT22;17110;52.602;12.998;2024-02-23T20:03:37;5.50;99.90
30300;DHT22;17110;52.602;12.998;2024-02-23T20:08:39;5.60;99.90
30300;DHT22;17110;52.602;12.998;2024-02-23T20:13:40;5.50;99.90
30300;DHT22;17110;52.602;12.998;2024-02-23T20:18:41;5.40;99.90
30300;DHT22;17110;52.602;12.998;2024-02-23T20:23:43;5.40;99.90
30300;DHT22;17110;52.602;12.998;2024-02-23T20:28:44;5.50;99.90
30300;DHT22;17110;52.602;12.998;2024-02-23T20:33:44;5.50;99.90
30300;DHT22;17110;52.602;12.998;2024-02-23T20:38:46;5.30;99.90
30300;DHT22;17110;52.602;12.998;2024-02-23T20:43:47;5.20;99.90
30300;DHT22;17110;52.602;12.998;2024-02-23T20:48:48;5.20;99.90
30300;DHT22;17110;52.602;12.998;2024-02-23T20:53:50;5.20;99.90
30300;DHT22;17110;52.602;12.998;2024-02-23T20:58:51;5.40;99.90
30300;DHT22;17110;52.602;12.998;2024-02-23T21:03:51;5.30;99.90
30300;DHT22;17110;52.602;12.998;2024-02-23T21:08:53;5.40;99.90
30300;DHT22;17110;52.602;12.998;2024-02-23T21:13:54;5.30;99.90
30300;DHT22;17110;52.602;12.998;2024-02-23T21:18:55;5.40;99.90
30300;DHT22;17110;52.602;12.998;2024-02-23T21:23:57;5.30;99.90
30300;DHT22;17110;52.602;12.998;2024-02-23T21:28:58;5.20;99.90
30300;DHT22;17110;52.602;12.998;2024-02-23T21:33:58;5.10;99.90
30300;DHT22;17110;52.602;12.998;2024-02-23T21:39:00;4.90;99.90
30300;DHT22;17110;52.602;12.998;2024-02-23T21:44:01;4.80;99.90
30300;DHT22;17110;52.602;12.998;2024-02-23T21:49:02;4.70;99.90
30300;DHT22;17110;52.602;12.998;2024-02-23T21:54:04;4.60;99.90
30300;DHT22;17110;52.602;12.998;2024-02-23T21:59:05;4.40;99.90
30300;DHT22;17110;52.602;12.998;2024-02-23T22:04:06;4.30;99.90
30300;DHT22;17110;52.602;12.998;2024-02-23T22:09:08;4.20;99.90
30300;DHT22;17110;52.602;12.998;2024-02-23T22:14:08;4.20;99.90
30300;DHT22;17110;52.602;12.998;2024-02-23T22:19:09;4.10;99.90
30300;DHT22;17110;52.602;12.998;2024-02-23T22:24:11;4.00;99.90
30300;DHT22;17110;52.602;12.998;2024-02-23T22:29:12;4.00;99.90
30300;DHT22;17110;52.602;12.998;2024-02-23T22:34:13;4.00;99.90
30300;DHT22;17110;52.602;12.998;2024-02-23T22:39:15;3.90;99.90
30300;DHT22;17110;52.602;12.998;2024-02-23T22:44:15;3.90;99.90
30300;DHT22;17110;52.602;12.998;2024-02-23T22:49:16;3.90;99.90
30300;DHT22;17110;52.602;12.998;2024-02-23T22:54:18;3.80;99.90
30300;DHT22;17110;52.602;12.998;2024-02-23T22:59:19;3.80;99.90
30300;DHT22;17110;52.602;12.998;2024-02-23T23:04:20;3.70;99.90
30300;DHT22;17110;52.602;12.998;2024-02-23T23:09:22;3.60;99.90
30300;DHT22;17110;52.602;12.998;2024-02-23T23:14:23;3.50;99.90
30300;DHT22;17110;52.602;12.998;2024-02-23T23:19:23;3.50;99.90
30300;DHT22;17110;52.602;12.998;2024-02-23T23:24:25;3.40;99.90
30300;DHT22;17110;52.602;12.998;2024-02-23T23:29:26;3.30;99.90
30300;DHT22;17110;52.602;12.998;2024-02-23T23:34:27;3.10;99.90
30300;DHT22;17110;52.602;12.998;2024-02-23T23:39:29;3.10;99.90
30300;DHT22;17110;52.602;12.998;2024-02-23T23:44:30;3.00;99.90
30300;DHT22;17110;52.602;12.998;2024-02-23T23:49:30;2.90;99.90
30300;DHT22;17110;52.602;12.998;2024-02-23T23:54:32;3.00;99.90
30300;DHT22;17110;52.602;12.998;2024-02-23T23:59:33;3.00;99.90
